sensor_id;sensor_type;location;lat;lon;timestamp;temperature;humidity
43991;DHT22;29654;50.784;20.604;2022-08-19T00:02:18;26.90;50.20
43991;DHT22;29654;50.784;20.604;2022-08-19T00:07:22;26.90;50.40
43991;DHT22;29654;50.784;20.604;2022-08-19T00:12:25;26.90;50.40
43991;DHT22;29654;50.784;20.604;2022-08-19T00:17:28;26.80;50.40
43991;DHT22;29654;50.784;20.604;2022-08-19T00:22:32;26.70;50.40
43991;DHT22;29654;50.784;20.604;2022-08-19T00:27:35;26.70;50.70
43991;DHT22;29654;50.784;20.604;2022-08-19T00:32:39;26.60;51.30
43991;DHT22;29654;50.784;20.604;2022-08-19T00:37:43;26.60;50.80
43991;DHT22;29654;50.784;20.604;2022-08-19T00:42:46;26.60;51.10
43991;DHT22;29654;50.784;20.604;2022-08-19T00:47:49;26.50;51.00
43991;DHT22;29654;50.784;20.604;2022-08-19T00:52:53;26.50;51.10
43991;DHT22;29654;50.784;20.604;2022-08-19T00:57:59;26.50;51.30
43991;DHT22;29654;50.784;20.604;2022-08-19T01:03:06;26.40;51.40
43991;DHT22;29654;50.784;20.604;2022-08-19T01:08:13;26.40;51.50
43991;DHT22;29654;50.784;20.604;2022-08-19T01:13:20;26.40;51.60
43991;DHT22;29654;50.784;20.604;2022-08-19T01:18:25;26.30;51.70
43991;DHT22;29654;50.784;20.604;2022-08-19T01:23:30;26.30;51.70
43991;DHT22;29654;50.784;20.604;2022-08-19T01:28:46;26.30;51.80
43991;DHT22;29654;50.784;20.604;2022-08-19T01:33:52;26.30;51.90
43991;DHT22;29654;50.784;20.604;2022-08-19T01:39:00;26.20;52.00
43991;DHT22;29654;50.784;20.604;2022-08-19T01:44:04;26.20;52.30
43991;DHT22;29654;50.784;20.604;2022-08-19T01:49:08;26.20;52.30
43991;DHT22;29654;50.784;20.604;2022-08-19T01:54:14;26.10;52.30
43991;DHT22;29654;50.784;20.604;2022-08-19T01:59:20;26.10;52.60
43991;DHT22;29654;50.784;20.604;2022-08-19T02:04:24;26.10;52.60
43991;DHT22;29654;50.784;20.604;2022-08-19T02:09:30;26.10;52.60
43991;DHT22;29654;50.784;20.604;2022-08-19T02:14:34;26.10;52.90
43991;DHT22;29654;50.784;20.604;2022-08-19T02:19:36;26.10;52.70
43991;DHT22;29654;50.784;20.604;2022-08-19T02:24:41;26.10;52.70
43991;DHT22;29654;50.784;20.604;2022-08-19T02:29:45;26.10;52.80
43991;DHT22;29654;50.784;20.604;2022-08-19T02:34:48;26.10;52.70
43991;DHT22;29654;50.784;20.604;2022-08-19T02:39:53;26.10;52.70
43991;DHT22;29654;50.784;20.604;2022-08-19T02:44:55;26.10;52.90
43991;DHT22;29654;50.784;20.604;2022-08-19T02:49:59;26.10;52.80
43991;DHT22;29654;50.784;20.604;2022-08-19T02:55:05;26.10;52.80
43991;DHT22;29654;50.784;20.604;2022-08-19T03:00:11;26.10;53.00
43991;DHT22;29654;50.784;20.604;2022-08-19T03:05:14;26.10;52.90
43991;DHT22;29654;50.784;20.604;2022-08-19T03:10:19;26.10;53.00
43991;DHT22;29654;50.784;20.604;2022-08-19T03:15:22;26.10;53.10
43991;DHT22;29654;50.784;20.604;2022-08-19T03:20:25;26.10;53.00
43991;DHT22;29654;50.784;20.604;2022-08-19T03:25:29;26.10;53.00
43991;DHT22;29654;50.784;20.604;2022-08-19T03:30:32;26.10;53.20
43991;DHT22;29654;50.784;20.604;2022-08-19T03:35:34;26.20;53.20
43991;DHT22;29654;50.784;20.604;2022-08-19T03:40:39;26.10;53.20
43991;DHT22;29654;50.784;20.604;2022-08-19T03:45:43;26.10;53.40
43991;DHT22;29654;50.784;20.604;2022-08-19T03:50:46;26.20;53.50
43991;DHT22;29654;50.784;20.604;2022-08-19T03:55:52;26.20;53.50
43991;DHT22;29654;50.784;20.604;2022-08-19T04:00:55;26.30;53.70
43991;DHT22;29654;50.784;20.604;2022-08-19T04:05:59;26.40;53.80
43991;DHT22;29654;50.784;20.604;2022-08-19T04:11:08;26.40;53.80
43991;DHT22;29654;50.784;20.604;2022-08-19T04:16:11;26.50;54.20
43991;DHT22;29654;50.784;20.604;2022-08-19T04:21:17;26.60;53.90
43991;DHT22;29654;50.784;20.604;2022-08-19T04:26:24;26.70;54.00
43991;DHT22;29654;50.784;20.604;2022-08-19T04:31:29;26.70;54.00
43991;DHT22;29654;50.784;20.604;2022-08-19T04:36:37;26.80;53.80
43991;DHT22;29654;50.784;20.604;2022-08-19T04:41:43;26.90;53.80
43991;DHT22;29654;50.784;20.604;2022-08-19T04:47:04;27.00;53.90
43991;DHT22;29654;50.784;20.604;2022-08-19T04:52:07;27.10;53.70
43991;DHT22;29654;50.784;20.604;2022-08-19T04:57:11;27.20;53.80
43991;DHT22;29654;50.784;20.604;2022-08-19T05:02:14;27.40;53.90
43991;DHT22;29654;50.784;20.604;2022-08-19T05:07:16;27.60;53.80
43991;DHT22;29654;50.784;20.604;2022-08-19T05:12:21;27.80;53.70
43991;DHT22;29654;50.784;20.604;2022-08-19T05:17:25;28.00;53.60
43991;DHT22;29654;50.784;20.604;2022-08-19T05:22:29;28.20;53.40
43991;DHT22;29654;50.784;20.604;2022-08-19T05:27:37;28.40;53.10
43991;DHT22;29654;50.784;20.604;2022-08-19T05:32:40;28.60;53.00
43991;DHT22;29654;50.784;20.604;2022-08-19T05:37:43;28.80;52.80
43991;DHT22;29654;50.784;20.604;2022-08-19T05:42:48;29.00;52.50
43991;DHT22;29654;50.784;20.604;2022-08-19T05:47:51;29.20;52.30
43991;DHT22;29654;50.784;20.604;2022-08-19T05:52:54;29.30;52.10
43991;DHT22;29654;50.784;20.604;2022-08-19T05:57:58;29.50;51.80
43991;DHT22;29654;50.784;20.604;2022-08-19T06:03:02;29.70;51.50
43991;DHT22;29654;50.784;20.604;2022-08-19T06:08:05;29.70;51.10
43991;DHT22;29654;50.784;20.604;2022-08-19T06:13:09;29.80;51.00
43991;DHT22;29654;50.784;20.604;2022-08-19T06:18:12;30.00;51.00
43991;DHT22;29654;50.784;20.604;2022-08-19T06:23:15;30.10;50.80
43991;DHT22;29654;50.784;20.604;2022-08-19T06:28:21;30.30;50.60
43991;DHT22;29654;50.784;20.604;2022-08-19T06:33:24;30.50;50.70
43991;DHT22;29654;50.784;20.604;2022-08-19T06:38:27;30.60;50.30
43991;DHT22;29654;50.784;20.604;2022-08-19T06:43:31;30.80;50.30
43991;DHT22;29654;50.784;20.604;2022-08-19T06:48:34;31.10;49.90
43991;DHT22;29654;50.784;20.604;2022-08-19T06:53:37;31.20;49.80
43991;DHT22;29654;50.784;20.604;2022-08-19T06:58:42;31.40;49.50
43991;DHT22;29654;50.784;20.604;2022-08-19T07:03:45;31.50;49.10
43991;DHT22;29654;50.784;20.604;2022-08-19T07:08:48;31.70;49.00
43991;DHT22;29654;50.784;20.604;2022-08-19T07:13:53;31.80;48.70
43991;DHT22;29654;50.784;20.604;2022-08-19T07:18:57;32.00;48.50
43991;DHT22;29654;50.784;20.604;2022-08-19T07:24:00;32.10;48.30
43991;DHT22;29654;50.784;20.604;2022-08-19T07:29:05;32.20;48.00
43991;DHT22;29654;50.784;20.604;2022-08-19T07:34:10;32.30;47.50
43991;DHT22;29654;50.784;20.604;2022-08-19T07:39:16;32.40;47.60
43991;DHT22;29654;50.784;20.604;2022-08-19T07:44:22;32.50;47.30
43991;DHT22;29654;50.784;20.604;2022-08-19T07:49:26;32.70;47.50
43991;DHT22;29654;50.784;20.604;2022-08-19T07:54:32;32.80;47.20
43991;DHT22;29654;50.784;20.604;2022-08-19T07:59:37;32.90;46.70
43991;DHT22;29654;50.784;20.604;2022-08-19T08:04:41;33.10;46.30
43991;DHT22;29654;50.784;20.604;2022-08-19T08:10:02;33.30;46.40
43991;DHT22;29654;50.784;20.604;2022-08-19T08:15:10;33.50;46.10
43991;DHT22;29654;50.784;20.604;2022-08-19T08:20:18;33.60;45.20
43991;DHT22;29654;50.784;20.604;2022-08-19T08:25:22;33.80;45.00
43991;DHT22;29654;50.784;20.604;2022-08-19T08:30:29;34.00;44.70
43991;DHT22;29654;50.784;20.604;2022-08-19T08:35:34;34.10;44.10
43991;DHT22;29654;50.784;20.604;2022-08-19T08:40:42;34.20;44.00
43991;DHT22;29654;50.784;20.604;2022-08-19T08:45:53;34.40;43.80
43991;DHT22;29654;50.784;20.604;2022-08-19T08:50:59;34.50;43.60
43991;DHT22;29654;50.784;20.604;2022-08-19T08:56:06;34.70;44.00
43991;DHT22;29654;50.784;20.604;2022-08-19T09:01:11;34.90;43.60
43991;DHT22;29654;50.784;20.604;2022-08-19T09:06:19;35.10;43.30
43991;DHT22;29654;50.784;20.604;2022-08-19T09:11:38;35.30;42.90
43991;DHT22;29654;50.784;20.604;2022-08-19T09:16:50;35.50;41.30
43991;DHT22;29654;50.784;20.604;2022-08-19T09:21:53;35.60;41.70
43991;DHT22;29654;50.784;20.604;2022-08-19T09:26:56;35.70;41.60
43991;DHT22;29654;50.784;20.604;2022-08-19T09:32:00;35.70;41.60
43991;DHT22;29654;50.784;20.604;2022-08-19T09:37:04;35.90;41.40
43991;DHT22;29654;50.784;20.604;2022-08-19T09:42:08;36.00;41.10
43991;DHT22;29654;50.784;20.604;2022-08-19T09:47:14;36.10;40.60
43991;DHT22;29654;50.784;20.604;2022-08-19T09:52:17;36.10;40.10
43991;DHT22;29654;50.784;20.604;2022-08-19T09:57:20;36.10;40.00
43991;DHT22;29654;50.784;20.604;2022-08-19T10:02:25;36.20;40.10
43991;DHT22;29654;50.784;20.604;2022-08-19T10:07:29;36.20;39.60
43991;DHT22;29654;50.784;20.604;2022-08-19T10:12:32;36.30;39.90
43991;DHT22;29654;50.784;20.604;2022-08-19T10:17:37;36.50;39.90
43991;DHT22;29654;50.784;20.604;2022-08-19T10:22:39;36.50;39.50
43991;DHT22;29654;50.784;20.604;2022-08-19T10:27:43;36.60;39.30
43991;DHT22;29654;50.784;20.604;2022-08-19T10:32:47;36.70;39.00
43991;DHT22;29654;50.784;20.604;2022-08-19T10:37:50;36.80;39.00
43991;DHT22;29654;50.784;20.604;2022-08-19T10:42:53;36.90;38.80
43991;DHT22;29654;50.784;20.604;2022-08-19T10:47:57;37.00;38.80
43991;DHT22;29654;50.784;20.604;2022-08-19T10:53:03;37.10;38.30
43991;DHT22;29654;50.784;20.604;2022-08-19T10:58:13;37.20;38.00
43991;DHT22;29654;50.784;20.604;2022-08-19T11:03:20;37.30;37.50
43991;DHT22;29654;50.784;20.604;2022-08-19T11:08:23;37.30;39.20
43991;DHT22;29654;50.784;20.604;2022-08-19T11:13:27;37.40;38.00
43991;DHT22;29654;50.784;20.604;2022-08-19T11:18:32;37.40;37.90
43991;DHT22;29654;50.784;20.604;2022-08-19T11:23:35;37.50;37.70
43991;DHT22;29654;50.784;20.604;2022-08-19T11:28:38;37.50;37.60
43991;DHT22;29654;50.784;20.604;2022-08-19T11:33:42;37.40;37.60
43991;DHT22;29654;50.784;20.604;2022-08-19T11:38:45;37.40;37.50
43991;DHT22;29654;50.784;20.604;2022-08-19T11:43:50;37.40;37.70
43991;DHT22;29654;50.784;20.604;2022-08-19T11:48:58;37.50;37.10
43991;DHT22;29654;50.784;20.604;2022-08-19T11:54:01;37.60;37.10
43991;DHT22;29654;50.784;20.604;2022-08-19T11:59:06;37.60;36.80
43991;DHT22;29654;50.784;20.604;2022-08-19T12:04:11;37.60;36.30
43991;DHT22;29654;50.784;20.604;2022-08-19T12:09:13;37.70;36.50
43991;DHT22;29654;50.784;20.604;2022-08-19T12:14:16;37.70;36.20
43991;DHT22;29654;50.784;20.604;2022-08-19T12:19:20;37.80;36.50
43991;DHT22;29654;50.784;20.604;2022-08-19T12:24:25;37.80;36.20
43991;DHT22;29654;50.784;20.604;2022-08-19T12:29:28;37.90;36.00
43991;DHT22;29654;50.784;20.604;2022-08-19T12:34:33;38.00;35.70
43991;DHT22;29654;50.784;20.604;2022-08-19T12:39:40;38.10;35.60
43991;DHT22;29654;50.784;20.604;2022-08-19T12:44:44;38.20;35.40
43991;DHT22;29654;50.784;20.604;2022-08-19T12:49:48;38.20;35.10
43991;DHT22;29654;50.784;20.604;2022-08-19T12:54:53;38.30;35.00
43991;DHT22;29654;50.784;20.604;2022-08-19T12:59:57;38.30;34.90
43991;DHT22;29654;50.784;20.604;2022-08-19T13:05:01;38.30;34.80
43991;DHT22;29654;50.784;20.604;2022-08-19T13:10:05;38.30;34.50
43991;DHT22;29654;50.784;20.604;2022-08-19T13:15:10;38.30;34.60
43991;DHT22;29654;50.784;20.604;2022-08-19T13:20:16;38.20;34.90
43991;DHT22;29654;50.784;20.604;2022-08-19T13:25:21;38.20;34.10
43991;DHT22;29654;50.784;20.604;2022-08-19T13:30:23;38.30;34.40
43991;DHT22;29654;50.784;20.604;2022-08-19T13:35:47;38.30;34.40
43991;DHT22;29654;50.784;20.604;2022-08-19T13:40:52;38.40;34.60
43991;DHT22;29654;50.784;20.604;2022-08-19T13:45:56;38.50;34.60
43991;DHT22;29654;50.784;20.604;2022-08-19T13:51:00;38.60;34.30
43991;DHT22;29654;50.784;20.604;2022-08-19T13:56:05;38.70;34.00
43991;DHT22;29654;50.784;20.604;2022-08-19T14:01:09;38.80;33.90
43991;DHT22;29654;50.784;20.604;2022-08-19T14:06:14;38.80;33.80
43991;DHT22;29654;50.784;20.604;2022-08-19T14:11:19;38.80;33.30
43991;DHT22;29654;50.784;20.604;2022-08-19T14:16:23;38.80;33.80
43991;DHT22;29654;50.784;20.604;2022-08-19T14:21:29;38.80;33.70
43991;DHT22;29654;50.784;20.604;2022-08-19T14:26:32;38.70;33.20
43991;DHT22;29654;50.784;20.604;2022-08-19T14:31:35;38.70;33.20
43991;DHT22;29654;50.784;20.604;2022-08-19T14:36:40;38.70;33.10
43991;DHT22;29654;50.784;20.604;2022-08-19T14:41:43;38.60;33.40
43991;DHT22;29654;50.784;20.604;2022-08-19T14:46:47;38.60;33.10
43991;DHT22;29654;50.784;20.604;2022-08-19T14:51:52;38.60;33.70
43991;DHT22;29654;50.784;20.604;2022-08-19T14:56:55;38.50;33.20
43991;DHT22;29654;50.784;20.604;2022-08-19T15:01:58;38.50;32.90
43991;DHT22;29654;50.784;20.604;2022-08-19T15:07:03;38.40;33.10
43991;DHT22;29654;50.784;20.604;2022-08-19T15:12:07;38.40;32.80
43991;DHT22;29654;50.784;20.604;2022-08-19T15:17:11;38.30;32.80
43991;DHT22;29654;50.784;20.604;2022-08-19T15:22:16;38.30;32.80
43991;DHT22;29654;50.784;20.604;2022-08-19T15:27:21;38.20;32.70
43991;DHT22;29654;50.784;20.604;2022-08-19T15:32:24;38.10;33.00
43991;DHT22;29654;50.784;20.604;2022-08-19T15:37:30;38.00;32.90
43991;DHT22;29654;50.784;20.604;2022-08-19T15:42:35;37.90;32.90
43991;DHT22;29654;50.784;20.604;2022-08-19T15:47:39;37.80;33.00
43991;DHT22;29654;50.784;20.604;2022-08-19T15:52:48;37.80;33.10
43991;DHT22;29654;50.784;20.604;2022-08-19T15:57:52;37.70;32.90
43991;DHT22;29654;50.784;20.604;2022-08-19T16:03:14;37.70;33.10
43991;DHT22;29654;50.784;20.604;2022-08-19T16:08:36;37.60;33.30
43991;DHT22;29654;50.784;20.604;2022-08-19T16:13:39;37.50;33.30
43991;DHT22;29654;50.784;20.604;2022-08-19T16:18:42;37.40;33.50
43991;DHT22;29654;50.784;20.604;2022-08-19T16:23:49;37.30;33.40
43991;DHT22;29654;50.784;20.604;2022-08-19T16:28:51;37.20;33.30
43991;DHT22;29654;50.784;20.604;2022-08-19T16:33:54;37.10;33.40
43991;DHT22;29654;50.784;20.604;2022-08-19T16:38:59;37.00;33.30
43991;DHT22;29654;50.784;20.604;2022-08-19T16:44:04;36.80;33.40
43991;DHT22;29654;50.784;20.604;2022-08-19T16:49:07;36.60;33.40
43991;DHT22;29654;50.784;20.604;2022-08-19T16:54:12;36.50;33.70
43991;DHT22;29654;50.784;20.604;2022-08-19T16:59:15;36.30;33.80
43991;DHT22;29654;50.784;20.604;2022-08-19T17:04:18;36.20;34.80
43991;DHT22;29654;50.784;20.604;2022-08-19T17:09:22;36.10;34.30
43991;DHT22;29654;50.784;20.604;2022-08-19T17:14:25;35.90;34.40
43991;DHT22;29654;50.784;20.604;2022-08-19T17:19:28;35.80;34.60
43991;DHT22;29654;50.784;20.604;2022-08-19T17:24:32;35.70;34.70
43991;DHT22;29654;50.784;20.604;2022-08-19T17:29:36;35.60;35.00
43991;DHT22;29654;50.784;20.604;2022-08-19T17:34:39;35.50;35.50
43991;DHT22;29654;50.784;20.604;2022-08-19T17:39:43;35.30;36.20
43991;DHT22;29654;50.784;20.604;2022-08-19T17:44:46;35.20;36.50
43991;DHT22;29654;50.784;20.604;2022-08-19T17:49:48;35.00;36.10
43991;DHT22;29654;50.784;20.604;2022-08-19T17:54:53;34.80;36.30
43991;DHT22;29654;50.784;20.604;2022-08-19T17:59:56;34.60;36.50
43991;DHT22;29654;50.784;20.604;2022-08-19T18:04:59;34.40;36.70
43991;DHT22;29654;50.784;20.604;2022-08-19T18:10:04;34.20;37.30
43991;DHT22;29654;50.784;20.604;2022-08-19T18:15:08;34.00;37.50
43991;DHT22;29654;50.784;20.604;2022-08-19T18:20:14;33.90;37.80
43991;DHT22;29654;50.784;20.604;2022-08-19T18:25:22;33.70;38.10
43991;DHT22;29654;50.784;20.604;2022-08-19T18:30:27;33.50;38.60
43991;DHT22;29654;50.784;20.604;2022-08-19T18:35:34;33.30;38.30
43991;DHT22;29654;50.784;20.604;2022-08-19T18:40:40;33.20;38.50
43991;DHT22;29654;50.784;20.604;2022-08-19T18:46:00;33.00;39.00
43991;DHT22;29654;50.784;20.604;2022-08-19T18:51:21;32.90;39.00
43991;DHT22;29654;50.784;20.604;2022-08-19T18:56:27;32.70;39.10
43991;DHT22;29654;50.784;20.604;2022-08-19T19:01:34;32.60;39.50
43991;DHT22;29654;50.784;20.604;2022-08-19T19:06:40;32.40;39.80
43991;DHT22;29654;50.784;20.604;2022-08-19T19:11:46;32.30;40.00
43991;DHT22;29654;50.784;20.604;2022-08-19T19:16:51;32.20;40.40
43991;DHT22;29654;50.784;20.604;2022-08-19T19:21:54;32.00;40.10
43991;DHT22;29654;50.784;20.604;2022-08-19T19:27:01;31.90;40.40
43991;DHT22;29654;50.784;20.604;2022-08-19T19:32:10;31.80;40.70
43991;DHT22;29654;50.784;20.604;2022-08-19T19:37:18;31.70;40.70
43991;DHT22;29654;50.784;20.604;2022-08-19T19:42:23;31.60;40.60
43991;DHT22;29654;50.784;20.604;2022-08-19T19:47:26;31.50;40.70
43991;DHT22;29654;50.784;20.604;2022-08-19T19:52:30;31.50;40.70
43991;DHT22;29654;50.784;20.604;2022-08-19T19:57:35;31.40;41.20
43991;DHT22;29654;50.784;20.604;2022-08-19T20:02:40;31.40;41.40
43991;DHT22;29654;50.784;20.604;2022-08-19T20:07:44;31.30;41.50
43991;DHT22;29654;50.784;20.604;2022-08-19T20:13:05;31.30;41.70
43991;DHT22;29654;50.784;20.604;2022-08-19T20:18:11;31.20;41.80
43991;DHT22;29654;50.784;20.604;2022-08-19T20:23:15;31.10;41.90
43991;DHT22;29654;50.784;20.604;2022-08-19T20:28:21;31.10;42.20
43991;DHT22;29654;50.784;20.604;2022-08-19T20:33:26;31.00;42.10
43991;DHT22;29654;50.784;20.604;2022-08-19T20:38:31;30.90;41.90
43991;DHT22;29654;50.784;20.604;2022-08-19T20:43:36;30.90;42.00
43991;DHT22;29654;50.784;20.604;2022-08-19T20:48:40;30.80;42.10
43991;DHT22;29654;50.784;20.604;2022-08-19T20:53:43;30.70;42.20
43991;DHT22;29654;50.784;20.604;2022-08-19T20:58:48;30.70;42.40
43991;DHT22;29654;50.784;20.604;2022-08-19T21:03:52;30.60;42.30
43991;DHT22;29654;50.784;20.604;2022-08-19T21:08:54;30.60;42.50
43991;DHT22;29654;50.784;20.604;2022-08-19T21:13:59;30.50;42.40
43991;DHT22;29654;50.784;20.604;2022-08-19T21:19:02;30.50;42.50
43991;DHT22;29654;50.784;20.604;2022-08-19T21:24:06;30.40;42.50
43991;DHT22;29654;50.784;20.604;2022-08-19T21:29:10;30.40;42.70
43991;DHT22;29654;50.784;20.604;2022-08-19T21:34:13;30.40;42.80
43991;DHT22;29654;50.784;20.604;2022-08-19T21:39:16;30.30;42.90
43991;DHT22;29654;50.784;20.604;2022-08-19T21:44:22;30.30;43.30
43991;DHT22;29654;50.784;20.604;2022-08-19T21:49:25;30.20;43.40
43991;DHT22;29654;50.784;20.604;2022-08-19T21:54:30;30.20;43.40
43991;DHT22;29654;50.784;20.604;2022-08-19T21:59:34;30.10;43.50
43991;DHT22;29654;50.784;20.604;2022-08-19T22:04:40;30.00;43.70
43991;DHT22;29654;50.784;20.604;2022-08-19T22:09:44;29.90;44.00
43991;DHT22;29654;50.784;20.604;2022-08-19T22:14:49;29.80;44.10
43991;DHT22;29654;50.784;20.604;2022-08-19T22:19:53;29.70;44.30
43991;DHT22;29654;50.784;20.604;2022-08-19T22:25:02;29.60;44.30
43991;DHT22;29654;50.784;20.604;2022-08-19T22:30:12;29.60;44.70
43991;DHT22;29654;50.784;20.604;2022-08-19T22:35:22;29.50;45.20
43991;DHT22;29654;50.784;20.604;2022-08-19T22:40:29;29.40;45.10
43991;DHT22;29654;50.784;20.604;2022-08-19T22:45:34;29.30;45.10
43991;DHT22;29654;50.784;20.604;2022-08-19T22:50:40;29.30;45.30
43991;DHT22;29654;50.784;20.604;2022-08-19T22:55:44;29.20;45.40
43991;DHT22;29654;50.784;20.604;2022-08-19T23:00:50;29.10;45.40
43991;DHT22;29654;50.784;20.604;2022-08-19T23:05:53;29.10;45.80
43991;DHT22;29654;50.784;20.604;2022-08-19T23:10:59;29.00;45.60
43991;DHT22;29654;50.784;20.604;2022-08-19T23:16:05;28.90;45.60
43991;DHT22;29654;50.784;20.604;2022-08-19T23:21:09;29.00;46.10
43991;DHT22;29654;50.784;20.604;2022-08-19T23:26:14;28.90;46.20
43991;DHT22;29654;50.784;20.604;2022-08-19T23:31:19;28.90;46.00
43991;DHT22;29654;50.784;20.604;2022-08-19T23:36:23;28.80;46.30
43991;DHT22;29654;50.784;20.604;2022-08-19T23:41:27;28.80;46.50
43991;DHT22;29654;50.784;20.604;2022-08-19T23:46:31;28.80;46.50
43991;DHT22;29654;50.784;20.604;2022-08-19T23:51:33;28.70;46.60
43991;DHT22;29654;50.784;20.604;2022-08-19T23:56:36;28.70;46.60
